sensor_id;sensor_type;location;lat;lon;timestamp;P1;durP1;ratioP1;P2;durP2;ratioP2
13967;SDS011;39536;52.198;9.920;2023-10-08T00:01:18;0.10;;;0.10;;
13967;SDS011;39536;52.198;9.920;2023-10-08T00:03:46;0.10;;;0.10;;
13967;SDS011;39536;52.198;9.920;2023-10-08T00:06:15;0.40;;;0.20;;
13967;SDS011;39536;52.198;9.920;2023-10-08T00:08:46;0.00;;;0.00;;
13967;SDS011;39536;52.198;9.920;2023-10-08T00:11:13;0.10;;;0.10;;
13967;SDS011;39536;52.198;9.920;2023-10-08T00:13:41;0.27;;;0.20;;
13967;SDS011;39536;52.198;9.920;2023-10-08T00:16:09;1.60;;;0.10;;
13967;SDS011;39536;52.198;9.920;2023-10-08T00:18:36;0.20;;;0.20;;
13967;SDS011;39536;52.198;9.920;2023-10-08T00:21:05;0.10;;;0.10;;
13967;SDS011;39536;52.198;9.920;2023-10-08T00:23:42;0.20;;;0.20;;
13967;SDS011;39536;52.198;9.920;2023-10-08T00:26:16;0.20;;;0.20;;
13967;SDS011;39536;52.198;9.920;2023-10-08T00:28:53;0.10;;;0.10;;
13967;SDS011;39536;52.198;9.920;2023-10-08T00:31:21;0.13;;;0.13;;
13967;SDS011;39536;52.198;9.920;2023-10-08T00:33:51;1.50;;;0.30;;
13967;SDS011;39536;52.198;9.920;2023-10-08T00:36:18;0.10;;;0.10;;
13967;SDS011;39536;52.198;9.920;2023-10-08T00:38:45;0.20;;;0.20;;
13967;SDS011;39536;52.198;9.920;2023-10-08T00:41:16;0.10;;;0.10;;
13967;SDS011;39536;52.198;9.920;2023-10-08T00:43:46;0.20;;;0.20;;
13967;SDS011;39536;52.198;9.920;2023-10-08T00:46:13;0.10;;;0.10;;
13967;SDS011;39536;52.198;9.920;2023-10-08T00:48:48;0.30;;;0.30;;
13967;SDS011;39536;52.198;9.920;2023-10-08T00:51:17;0.20;;;0.20;;
13967;SDS011;39536;52.198;9.920;2023-10-08T00:53:56;0.30;;;0.30;;
13967;SDS011;39536;52.198;9.920;2023-10-08T00:56:33;0.80;;;0.30;;
13967;SDS011;39536;52.198;9.920;2023-10-08T00:59:22;0.13;;;0.13;;
13967;SDS011;39536;52.198;9.920;2023-10-08T01:01:50;0.40;;;0.20;;
13967;SDS011;39536;52.198;9.920;2023-10-08T01:04:24;0.20;;;0.20;;
13967;SDS011;39536;52.198;9.920;2023-10-08T01:06:52;0.10;;;0.10;;
13967;SDS011;39536;52.198;9.920;2023-10-08T01:09:24;0.47;;;0.20;;
13967;SDS011;39536;52.198;9.920;2023-10-08T01:12:11;0.10;;;0.10;;
13967;SDS011;39536;52.198;9.920;2023-10-08T01:14:40;0.10;;;0.10;;
13967;SDS011;39536;52.198;9.920;2023-10-08T01:17:08;0.63;;;0.17;;
13967;SDS011;39536;52.198;9.920;2023-10-08T01:19:37;0.60;;;0.20;;
13967;SDS011;39536;52.198;9.920;2023-10-08T01:22:08;0.00;;;0.00;;
13967;SDS011;39536;52.198;9.920;2023-10-08T01:24:41;0.10;;;0.10;;
13967;SDS011;39536;52.198;9.920;2023-10-08T01:27:09;0.10;;;0.10;;
13967;SDS011;39536;52.198;9.920;2023-10-08T01:29:37;0.30;;;0.30;;
13967;SDS011;39536;52.198;9.920;2023-10-08T01:32:04;0.53;;;0.53;;
13967;SDS011;39536;52.198;9.920;2023-10-08T01:34:35;0.40;;;0.40;;
13967;SDS011;39536;52.198;9.920;2023-10-08T01:37:02;3.60;;;1.00;;
13967;SDS011;39536;52.198;9.920;2023-10-08T01:39:35;3.73;;;0.93;;
13967;SDS011;39536;52.198;9.920;2023-10-08T01:42:03;2.77;;;1.30;;
13967;SDS011;39536;52.198;9.920;2023-10-08T01:44:31;2.03;;;1.00;;
13967;SDS011;39536;52.198;9.920;2023-10-08T01:46:59;2.47;;;0.90;;
13967;SDS011;39536;52.198;9.920;2023-10-08T01:49:26;5.93;;;1.93;;
13967;SDS011;39536;52.198;9.920;2023-10-08T01:51:57;4.20;;;1.37;;
13967;SDS011;39536;52.198;9.920;2023-10-08T01:54:24;7.67;;;1.20;;
13967;SDS011;39536;52.198;9.920;2023-10-08T01:56:52;3.57;;;1.30;;
13967;SDS011;39536;52.198;9.920;2023-10-08T01:59:19;4.63;;;1.50;;
13967;SDS011;39536;52.198;9.920;2023-10-08T02:01:45;4.70;;;1.30;;
13967;SDS011;39536;52.198;9.920;2023-10-08T02:04:13;5.70;;;2.37;;
13967;SDS011;39536;52.198;9.920;2023-10-08T02:06:41;4.00;;;1.07;;
13967;SDS011;39536;52.198;9.920;2023-10-08T02:09:08;4.83;;;1.27;;
13967;SDS011;39536;52.198;9.920;2023-10-08T02:11:44;0.83;;;0.80;;
13967;SDS011;39536;52.198;9.920;2023-10-08T02:14:16;2.50;;;1.17;;
13967;SDS011;39536;52.198;9.920;2023-10-08T02:16:43;3.37;;;1.10;;
13967;SDS011;39536;52.198;9.920;2023-10-08T02:19:10;5.97;;;1.53;;
13967;SDS011;39536;52.198;9.920;2023-10-08T02:21:36;2.87;;;1.00;;
13967;SDS011;39536;52.198;9.920;2023-10-08T02:24:07;1.70;;;1.00;;
13967;SDS011;39536;52.198;9.920;2023-10-08T02:26:36;4.83;;;1.63;;
13967;SDS011;39536;52.198;9.920;2023-10-08T02:29:02;1.70;;;0.93;;
13967;SDS011;39536;52.198;9.920;2023-10-08T02:31:36;2.57;;;1.03;;
13967;SDS011;39536;52.198;9.920;2023-10-08T02:34:04;2.70;;;0.90;;
13967;SDS011;39536;52.198;9.920;2023-10-08T02:36:33;2.07;;;1.00;;
13967;SDS011;39536;52.198;9.920;2023-10-08T02:39:01;2.70;;;1.23;;
13967;SDS011;39536;52.198;9.920;2023-10-08T02:41:31;3.83;;;1.00;;
13967;SDS011;39536;52.198;9.920;2023-10-08T02:43:58;4.17;;;1.00;;
13967;SDS011;39536;52.198;9.920;2023-10-08T02:46:25;3.47;;;1.40;;
13967;SDS011;39536;52.198;9.920;2023-10-08T02:48:55;2.13;;;1.00;;
13967;SDS011;39536;52.198;9.920;2023-10-08T02:51:23;3.03;;;1.13;;
13967;SDS011;39536;52.198;9.920;2023-10-08T02:53:50;3.70;;;1.07;;
13967;SDS011;39536;52.198;9.920;2023-10-08T02:56:17;4.87;;;1.20;;
13967;SDS011;39536;52.198;9.920;2023-10-08T02:58:43;1.87;;;0.90;;
13967;SDS011;39536;52.198;9.920;2023-10-08T03:01:12;4.77;;;1.37;;
13967;SDS011;39536;52.198;9.920;2023-10-08T03:03:40;5.03;;;1.30;;
13967;SDS011;39536;52.198;9.920;2023-10-08T03:06:08;4.97;;;1.00;;
13967;SDS011;39536;52.198;9.920;2023-10-08T03:08:37;3.50;;;1.10;;
13967;SDS011;39536;52.198;9.920;2023-10-08T03:11:08;2.23;;;1.07;;
13967;SDS011;39536;52.198;9.920;2023-10-08T03:13:42;4.00;;;1.37;;
13967;SDS011;39536;52.198;9.920;2023-10-08T03:16:11;4.00;;;1.57;;
13967;SDS011;39536;52.198;9.920;2023-10-08T03:18:39;4.37;;;1.53;;
13967;SDS011;39536;52.198;9.920;2023-10-08T03:21:09;3.30;;;1.10;;
13967;SDS011;39536;52.198;9.920;2023-10-08T03:23:45;2.73;;;0.93;;
13967;SDS011;39536;52.198;9.920;2023-10-08T03:26:13;1.47;;;0.97;;
13967;SDS011;39536;52.198;9.920;2023-10-08T03:28:58;3.73;;;0.90;;
13967;SDS011;39536;52.198;9.920;2023-10-08T03:31:30;2.57;;;1.17;;
13967;SDS011;39536;52.198;9.920;2023-10-08T03:34:15;2.70;;;1.13;;
13967;SDS011;39536;52.198;9.920;2023-10-08T03:36:45;2.53;;;1.23;;
13967;SDS011;39536;52.198;9.920;2023-10-08T03:39:14;3.77;;;1.70;;
13967;SDS011;39536;52.198;9.920;2023-10-08T03:41:43;3.40;;;1.20;;
13967;SDS011;39536;52.198;9.920;2023-10-08T03:44:23;5.40;;;1.60;;
13967;SDS011;39536;52.198;9.920;2023-10-08T03:46:49;2.23;;;1.10;;
13967;SDS011;39536;52.198;9.920;2023-10-08T03:49:17;3.30;;;1.20;;
13967;SDS011;39536;52.198;9.920;2023-10-08T03:51:53;4.13;;;1.13;;
13967;SDS011;39536;52.198;9.920;2023-10-08T03:54:22;2.40;;;1.23;;
13967;SDS011;39536;52.198;9.920;2023-10-08T03:56:55;1.80;;;1.17;;
13967;SDS011;39536;52.198;9.920;2023-10-08T03:59:22;4.70;;;1.37;;
13967;SDS011;39536;52.198;9.920;2023-10-08T04:01:56;3.37;;;1.30;;
13967;SDS011;39536;52.198;9.920;2023-10-08T04:04:26;3.30;;;1.20;;
13967;SDS011;39536;52.198;9.920;2023-10-08T04:07:09;3.13;;;2.13;;
13967;SDS011;39536;52.198;9.920;2023-10-08T04:10:03;3.10;;;1.10;;
13967;SDS011;39536;52.198;9.920;2023-10-08T04:12:46;3.07;;;1.00;;
13967;SDS011;39536;52.198;9.920;2023-10-08T04:15:15;2.50;;;1.03;;
13967;SDS011;39536;52.198;9.920;2023-10-08T04:17:43;2.60;;;0.90;;
13967;SDS011;39536;52.198;9.920;2023-10-08T04:20:10;3.57;;;1.23;;
13967;SDS011;39536;52.198;9.920;2023-10-08T04:22:56;1.47;;;1.10;;
13967;SDS011;39536;52.198;9.920;2023-10-08T04:25:26;2.00;;;1.30;;
13967;SDS011;39536;52.198;9.920;2023-10-08T04:27:54;4.13;;;1.40;;
13967;SDS011;39536;52.198;9.920;2023-10-08T04:30:23;2.87;;;1.20;;
13967;SDS011;39536;52.198;9.920;2023-10-08T04:32:57;3.17;;;1.07;;
13967;SDS011;39536;52.198;9.920;2023-10-08T04:35:24;3.70;;;0.90;;
13967;SDS011;39536;52.198;9.920;2023-10-08T04:37:52;4.10;;;1.20;;
13967;SDS011;39536;52.198;9.920;2023-10-08T04:40:19;3.80;;;1.40;;
13967;SDS011;39536;52.198;9.920;2023-10-08T04:42:50;4.13;;;1.00;;
13967;SDS011;39536;52.198;9.920;2023-10-08T04:45:19;4.00;;;1.30;;
13967;SDS011;39536;52.198;9.920;2023-10-08T04:47:51;2.77;;;1.43;;
13967;SDS011;39536;52.198;9.920;2023-10-08T04:50:19;4.87;;;1.67;;
13967;SDS011;39536;52.198;9.920;2023-10-08T04:52:46;2.03;;;1.17;;
13967;SDS011;39536;52.198;9.920;2023-10-08T04:55:23;4.10;;;1.67;;
13967;SDS011;39536;52.198;9.920;2023-10-08T04:57:55;4.83;;;2.63;;
13967;SDS011;39536;52.198;9.920;2023-10-08T05:00:23;3.07;;;1.30;;
13967;SDS011;39536;52.198;9.920;2023-10-08T05:03:06;4.80;;;1.93;;
13967;SDS011;39536;52.198;9.920;2023-10-08T05:05:39;6.20;;;2.13;;
13967;SDS011;39536;52.198;9.920;2023-10-08T05:08:20;4.90;;;2.27;;
13967;SDS011;39536;52.198;9.920;2023-10-08T05:10:58;7.33;;;1.97;;
13967;SDS011;39536;52.198;9.920;2023-10-08T05:13:41;3.20;;;1.83;;
13967;SDS011;39536;52.198;9.920;2023-10-08T05:16:21;5.30;;;1.70;;
13967;SDS011;39536;52.198;9.920;2023-10-08T05:19:01;3.13;;;1.70;;
13967;SDS011;39536;52.198;9.920;2023-10-08T05:21:48;6.13;;;1.97;;
13967;SDS011;39536;52.198;9.920;2023-10-08T05:24:30;5.17;;;1.90;;
13967;SDS011;39536;52.198;9.920;2023-10-08T05:27:04;2.93;;;1.47;;
13967;SDS011;39536;52.198;9.920;2023-10-08T05:30:03;3.13;;;2.10;;
13967;SDS011;39536;52.198;9.920;2023-10-08T05:32:41;2.07;;;1.50;;
13967;SDS011;39536;52.198;9.920;2023-10-08T05:35:31;3.60;;;1.90;;
13967;SDS011;39536;52.198;9.920;2023-10-08T05:38:19;4.23;;;1.57;;
13967;SDS011;39536;52.198;9.920;2023-10-08T05:41:03;3.83;;;1.67;;
13967;SDS011;39536;52.198;9.920;2023-10-08T05:43:48;3.30;;;1.50;;
13967;SDS011;39536;52.198;9.920;2023-10-08T05:46:33;5.20;;;1.40;;
13967;SDS011;39536;52.198;9.920;2023-10-08T05:49:32;1.90;;;1.17;;
13967;SDS011;39536;52.198;9.920;2023-10-08T05:52:07;5.97;;;1.63;;
13967;SDS011;39536;52.198;9.920;2023-10-08T05:54:53;6.90;;;1.93;;
13967;SDS011;39536;52.198;9.920;2023-10-08T05:57:37;6.37;;;1.83;;
13967;SDS011;39536;52.198;9.920;2023-10-08T06:00:12;4.43;;;1.57;;
13967;SDS011;39536;52.198;9.920;2023-10-08T06:02:58;2.90;;;1.10;;
13967;SDS011;39536;52.198;9.920;2023-10-08T06:05:36;2.47;;;1.53;;
13967;SDS011;39536;52.198;9.920;2023-10-08T06:08:29;3.17;;;1.13;;
13967;SDS011;39536;52.198;9.920;2023-10-08T06:11:14;5.00;;;2.00;;
13967;SDS011;39536;52.198;9.920;2023-10-08T06:14:02;1.93;;;1.30;;
13967;SDS011;39536;52.198;9.920;2023-10-08T06:16:38;2.60;;;1.20;;
13967;SDS011;39536;52.198;9.920;2023-10-08T06:19:08;2.47;;;1.03;;
13967;SDS011;39536;52.198;9.920;2023-10-08T06:21:35;2.93;;;1.57;;
13967;SDS011;39536;52.198;9.920;2023-10-08T06:24:04;4.10;;;2.60;;
13967;SDS011;39536;52.198;9.920;2023-10-08T06:26:34;2.50;;;1.00;;
13967;SDS011;39536;52.198;9.920;2023-10-08T06:29:07;2.00;;;1.27;;
13967;SDS011;39536;52.198;9.920;2023-10-08T06:31:45;5.70;;;1.30;;
13967;SDS011;39536;52.198;9.920;2023-10-08T06:34:18;4.20;;;1.47;;
13967;SDS011;39536;52.198;9.920;2023-10-08T06:36:46;4.20;;;1.37;;
13967;SDS011;39536;52.198;9.920;2023-10-08T06:39:15;2.43;;;1.13;;
13967;SDS011;39536;52.198;9.920;2023-10-08T06:41:44;3.53;;;1.53;;
13967;SDS011;39536;52.198;9.920;2023-10-08T06:44:11;3.27;;;1.30;;
13967;SDS011;39536;52.198;9.920;2023-10-08T06:46:40;2.50;;;1.20;;
13967;SDS011;39536;52.198;9.920;2023-10-08T06:49:07;4.10;;;1.50;;
13967;SDS011;39536;52.198;9.920;2023-10-08T06:51:39;2.40;;;1.40;;
13967;SDS011;39536;52.198;9.920;2023-10-08T06:54:07;2.37;;;1.27;;
13967;SDS011;39536;52.198;9.920;2023-10-08T06:56:36;2.37;;;1.17;;
13967;SDS011;39536;52.198;9.920;2023-10-08T06:59:03;6.03;;;1.30;;
13967;SDS011;39536;52.198;9.920;2023-10-08T07:01:31;3.47;;;0.80;;
13967;SDS011;39536;52.198;9.920;2023-10-08T07:04:04;1.93;;;1.17;;
13967;SDS011;39536;52.198;9.920;2023-10-08T07:06:31;4.03;;;1.60;;
13967;SDS011;39536;52.198;9.920;2023-10-08T07:09:00;2.17;;;0.97;;
13967;SDS011;39536;52.198;9.920;2023-10-08T07:11:30;1.70;;;1.17;;
13967;SDS011;39536;52.198;9.920;2023-10-08T07:14:00;7.27;;;1.60;;
13967;SDS011;39536;52.198;9.920;2023-10-08T07:16:26;4.83;;;1.50;;
13967;SDS011;39536;52.198;9.920;2023-10-08T07:18:53;2.30;;;0.93;;
13967;SDS011;39536;52.198;9.920;2023-10-08T07:21:26;1.60;;;0.90;;
13967;SDS011;39536;52.198;9.920;2023-10-08T07:23:54;4.43;;;1.60;;
13967;SDS011;39536;52.198;9.920;2023-10-08T07:26:27;4.37;;;1.40;;
13967;SDS011;39536;52.198;9.920;2023-10-08T07:29:01;1.33;;;1.10;;
13967;SDS011;39536;52.198;9.920;2023-10-08T07:31:33;2.77;;;1.30;;
13967;SDS011;39536;52.198;9.920;2023-10-08T07:34:01;1.70;;;1.17;;
13967;SDS011;39536;52.198;9.920;2023-10-08T07:36:40;3.33;;;1.70;;
13967;SDS011;39536;52.198;9.920;2023-10-08T07:39:08;2.17;;;1.03;;
13967;SDS011;39536;52.198;9.920;2023-10-08T07:41:49;5.23;;;1.37;;
13967;SDS011;39536;52.198;9.920;2023-10-08T07:44:16;4.33;;;1.30;;
13967;SDS011;39536;52.198;9.920;2023-10-08T07:46:46;4.23;;;1.83;;
13967;SDS011;39536;52.198;9.920;2023-10-08T07:49:12;3.00;;;1.30;;
13967;SDS011;39536;52.198;9.920;2023-10-08T07:51:39;4.37;;;1.37;;
13967;SDS011;39536;52.198;9.920;2023-10-08T07:54:06;1.73;;;1.63;;
13967;SDS011;39536;52.198;9.920;2023-10-08T07:56:34;2.10;;;1.40;;
13967;SDS011;39536;52.198;9.920;2023-10-08T07:59:04;3.83;;;1.73;;
13967;SDS011;39536;52.198;9.920;2023-10-08T08:01:34;3.30;;;1.60;;
13967;SDS011;39536;52.198;9.920;2023-10-08T08:04:02;5.53;;;2.00;;
13967;SDS011;39536;52.198;9.920;2023-10-08T08:06:29;3.57;;;1.80;;
13967;SDS011;39536;52.198;9.920;2023-10-08T08:08:56;9.17;;;2.80;;
13967;SDS011;39536;52.198;9.920;2023-10-08T08:11:22;5.17;;;1.80;;
13967;SDS011;39536;52.198;9.920;2023-10-08T08:13:51;2.03;;;1.50;;
13967;SDS011;39536;52.198;9.920;2023-10-08T08:16:19;3.47;;;1.70;;
13967;SDS011;39536;52.198;9.920;2023-10-08T08:18:46;4.03;;;2.17;;
13967;SDS011;39536;52.198;9.920;2023-10-08T08:21:15;3.43;;;2.27;;
13967;SDS011;39536;52.198;9.920;2023-10-08T08:23:45;2.40;;;1.53;;
13967;SDS011;39536;52.198;9.920;2023-10-08T08:26:16;2.23;;;1.57;;
13967;SDS011;39536;52.198;9.920;2023-10-08T08:28:54;4.60;;;1.83;;
13967;SDS011;39536;52.198;9.920;2023-10-08T08:31:23;2.80;;;1.53;;
13967;SDS011;39536;52.198;9.920;2023-10-08T08:33:51;3.13;;;1.63;;
13967;SDS011;39536;52.198;9.920;2023-10-08T08:36:25;1.70;;;1.40;;
13967;SDS011;39536;52.198;9.920;2023-10-08T08:38:52;3.97;;;1.40;;
13967;SDS011;39536;52.198;9.920;2023-10-08T08:41:19;3.30;;;1.20;;
13967;SDS011;39536;52.198;9.920;2023-10-08T08:43:48;2.20;;;1.40;;
13967;SDS011;39536;52.198;9.920;2023-10-08T08:46:23;4.67;;;1.93;;
13967;SDS011;39536;52.198;9.920;2023-10-08T08:48:57;2.53;;;1.20;;
13967;SDS011;39536;52.198;9.920;2023-10-08T08:51:29;3.13;;;1.53;;
13967;SDS011;39536;52.198;9.920;2023-10-08T08:53:55;4.23;;;1.53;;
13967;SDS011;39536;52.198;9.920;2023-10-08T08:56:25;3.67;;;1.40;;
13967;SDS011;39536;52.198;9.920;2023-10-08T08:58:52;2.40;;;1.23;;
13967;SDS011;39536;52.198;9.920;2023-10-08T09:01:21;3.27;;;1.70;;
13967;SDS011;39536;52.198;9.920;2023-10-08T09:03:49;3.30;;;1.60;;
13967;SDS011;39536;52.198;9.920;2023-10-08T09:06:16;2.97;;;1.70;;
13967;SDS011;39536;52.198;9.920;2023-10-08T09:08:43;3.87;;;1.37;;
13967;SDS011;39536;52.198;9.920;2023-10-08T09:11:13;3.70;;;1.07;;
13967;SDS011;39536;52.198;9.920;2023-10-08T09:13:41;3.57;;;1.30;;
13967;SDS011;39536;52.198;9.920;2023-10-08T09:16:09;3.67;;;1.50;;
13967;SDS011;39536;52.198;9.920;2023-10-08T09:18:38;4.40;;;1.30;;
13967;SDS011;39536;52.198;9.920;2023-10-08T09:21:10;3.70;;;1.53;;
13967;SDS011;39536;52.198;9.920;2023-10-08T09:23:41;1.87;;;1.23;;
13967;SDS011;39536;52.198;9.920;2023-10-08T09:26:12;3.37;;;1.17;;
13967;SDS011;39536;52.198;9.920;2023-10-08T09:28:40;4.17;;;1.73;;
13967;SDS011;39536;52.198;9.920;2023-10-08T09:31:09;3.00;;;1.10;;
13967;SDS011;39536;52.198;9.920;2023-10-08T09:33:37;2.23;;;1.40;;
13967;SDS011;39536;52.198;9.920;2023-10-08T09:36:05;5.70;;;1.70;;
13967;SDS011;39536;52.198;9.920;2023-10-08T09:38:37;2.40;;;1.27;;
13967;SDS011;39536;52.198;9.920;2023-10-08T09:41:04;3.17;;;1.10;;
13967;SDS011;39536;52.198;9.920;2023-10-08T09:43:33;4.87;;;1.67;;
13967;SDS011;39536;52.198;9.920;2023-10-08T09:46:03;1.83;;;1.20;;
13967;SDS011;39536;52.198;9.920;2023-10-08T09:48:36;4.03;;;1.47;;
13967;SDS011;39536;52.198;9.920;2023-10-08T09:51:03;2.07;;;1.20;;
13967;SDS011;39536;52.198;9.920;2023-10-08T09:53:36;3.20;;;1.30;;
13967;SDS011;39536;52.198;9.920;2023-10-08T09:56:12;3.17;;;1.70;;
13967;SDS011;39536;52.198;9.920;2023-10-08T09:58:40;1.90;;;1.20;;
13967;SDS011;39536;52.198;9.920;2023-10-08T10:01:09;3.53;;;1.17;;
13967;SDS011;39536;52.198;9.920;2023-10-08T10:03:36;1.30;;;0.77;;
13967;SDS011;39536;52.198;9.920;2023-10-08T10:06:04;3.37;;;0.97;;
13967;SDS011;39536;52.198;9.920;2023-10-08T10:08:39;4.40;;;1.97;;
13967;SDS011;39536;52.198;9.920;2023-10-08T10:11:09;3.27;;;1.23;;
13967;SDS011;39536;52.198;9.920;2023-10-08T10:13:40;6.13;;;1.83;;
13967;SDS011;39536;52.198;9.920;2023-10-08T10:16:09;2.43;;;1.00;;
13967;SDS011;39536;52.198;9.920;2023-10-08T10:18:38;8.30;;;1.43;;
13967;SDS011;39536;52.198;9.920;2023-10-08T10:23:51;4.27;;;1.47;;
13967;SDS011;39536;52.198;9.920;2023-10-08T10:26:24;2.77;;;1.50;;
13967;SDS011;39536;52.198;9.920;2023-10-08T10:31:46;3.20;;;1.00;;
13967;SDS011;39536;52.198;9.920;2023-10-08T10:34:14;6.47;;;1.50;;
13967;SDS011;39536;52.198;9.920;2023-10-08T10:36:43;4.10;;;1.30;;
13967;SDS011;39536;52.198;9.920;2023-10-08T10:39:13;5.87;;;1.60;;
13967;SDS011;39536;52.198;9.920;2023-10-08T10:41:44;5.50;;;1.47;;
13967;SDS011;39536;52.198;9.920;2023-10-08T10:44:11;4.93;;;1.57;;
13967;SDS011;39536;52.198;9.920;2023-10-08T10:46:39;3.73;;;1.40;;
13967;SDS011;39536;52.198;9.920;2023-10-08T10:49:08;6.50;;;1.27;;
13967;SDS011;39536;52.198;9.920;2023-10-08T10:51:43;2.07;;;1.20;;
13967;SDS011;39536;52.198;9.920;2023-10-08T10:54:11;10.10;;;1.67;;
13967;SDS011;39536;52.198;9.920;2023-10-08T10:56:46;4.23;;;1.83;;
13967;SDS011;39536;52.198;9.920;2023-10-08T10:59:21;3.37;;;1.60;;
13967;SDS011;39536;52.198;9.920;2023-10-08T11:01:52;7.30;;;1.37;;
13967;SDS011;39536;52.198;9.920;2023-10-08T11:04:30;3.43;;;1.60;;
13967;SDS011;39536;52.198;9.920;2023-10-08T11:06:58;3.07;;;1.63;;
13967;SDS011;39536;52.198;9.920;2023-10-08T11:09:26;3.90;;;1.60;;
13967;SDS011;39536;52.198;9.920;2023-10-08T11:12:05;3.67;;;1.90;;
13967;SDS011;39536;52.198;9.920;2023-10-08T11:14:36;1.97;;;1.30;;
13967;SDS011;39536;52.198;9.920;2023-10-08T11:17:16;2.60;;;1.77;;
13967;SDS011;39536;52.198;9.920;2023-10-08T11:19:43;4.10;;;1.40;;
13967;SDS011;39536;52.198;9.920;2023-10-08T11:22:11;4.63;;;1.30;;
13967;SDS011;39536;52.198;9.920;2023-10-08T11:24:41;4.37;;;1.50;;
13967;SDS011;39536;52.198;9.920;2023-10-08T11:27:14;3.10;;;1.63;;
13967;SDS011;39536;52.198;9.920;2023-10-08T11:29:43;3.00;;;1.50;;
13967;SDS011;39536;52.198;9.920;2023-10-08T11:32:11;3.73;;;1.50;;
13967;SDS011;39536;52.198;9.920;2023-10-08T11:34:40;4.00;;;1.53;;
13967;SDS011;39536;52.198;9.920;2023-10-08T11:37:08;2.13;;;1.07;;
13967;SDS011;39536;52.198;9.920;2023-10-08T11:39:46;4.67;;;1.60;;
13967;SDS011;39536;52.198;9.920;2023-10-08T11:42:15;13.20;;;1.80;;
13967;SDS011;39536;52.198;9.920;2023-10-08T11:44:59;2.80;;;1.40;;
13967;SDS011;39536;52.198;9.920;2023-10-08T11:47:42;3.07;;;1.63;;
13967;SDS011;39536;52.198;9.920;2023-10-08T11:50:10;2.77;;;1.77;;
13967;SDS011;39536;52.198;9.920;2023-10-08T11:52:42;6.23;;;1.60;;
13967;SDS011;39536;52.198;9.920;2023-10-08T11:55:08;4.33;;;1.40;;
13967;SDS011;39536;52.198;9.920;2023-10-08T11:57:40;3.17;;;1.43;;
13967;SDS011;39536;52.198;9.920;2023-10-08T12:00:11;3.07;;;1.20;;
13967;SDS011;39536;52.198;9.920;2023-10-08T12:02:44;3.93;;;1.20;;
13967;SDS011;39536;52.198;9.920;2023-10-08T12:05:11;1.60;;;1.20;;
13967;SDS011;39536;52.198;9.920;2023-10-08T12:07:44;5.50;;;4.27;;
13967;SDS011;39536;52.198;9.920;2023-10-08T12:10:11;2.27;;;1.70;;
13967;SDS011;39536;52.198;9.920;2023-10-08T12:12:39;2.93;;;1.60;;
13967;SDS011;39536;52.198;9.920;2023-10-08T12:15:07;5.17;;;1.50;;
13967;SDS011;39536;52.198;9.920;2023-10-08T12:17:34;2.50;;;1.60;;
13967;SDS011;39536;52.198;9.920;2023-10-08T12:20:05;1.53;;;1.40;;
13967;SDS011;39536;52.198;9.920;2023-10-08T12:22:48;3.50;;;1.37;;
13967;SDS011;39536;52.198;9.920;2023-10-08T12:25:18;4.23;;;1.57;;
13967;SDS011;39536;52.198;9.920;2023-10-08T12:27:46;2.60;;;1.60;;
13967;SDS011;39536;52.198;9.920;2023-10-08T12:30:13;1.97;;;1.67;;
13967;SDS011;39536;52.198;9.920;2023-10-08T12:32:40;3.73;;;1.70;;
13967;SDS011;39536;52.198;9.920;2023-10-08T12:35:11;4.87;;;1.50;;
13967;SDS011;39536;52.198;9.920;2023-10-08T12:37:38;4.20;;;1.63;;
13967;SDS011;39536;52.198;9.920;2023-10-08T12:40:06;3.70;;;1.70;;
13967;SDS011;39536;52.198;9.920;2023-10-08T12:42:37;2.37;;;1.40;;
13967;SDS011;39536;52.198;9.920;2023-10-08T12:45:07;3.50;;;1.67;;
13967;SDS011;39536;52.198;9.920;2023-10-08T12:47:37;3.37;;;1.50;;
13967;SDS011;39536;52.198;9.920;2023-10-08T12:50:04;2.90;;;1.60;;
13967;SDS011;39536;52.198;9.920;2023-10-08T12:52:33;2.93;;;1.83;;
13967;SDS011;39536;52.198;9.920;2023-10-08T12:55:00;1.90;;;1.63;;
13967;SDS011;39536;52.198;9.920;2023-10-08T12:57:29;2.77;;;1.60;;
13967;SDS011;39536;52.198;9.920;2023-10-08T12:59:58;2.13;;;1.60;;
13967;SDS011;39536;52.198;9.920;2023-10-08T13:02:26;3.63;;;1.60;;
13967;SDS011;39536;52.198;9.920;2023-10-08T13:04:53;2.57;;;1.33;;
13967;SDS011;39536;52.198;9.920;2023-10-08T13:07:22;2.93;;;1.47;;
13967;SDS011;39536;52.198;9.920;2023-10-08T13:09:51;6.23;;;1.70;;
13967;SDS011;39536;52.198;9.920;2023-10-08T13:12:18;3.43;;;1.40;;
13967;SDS011;39536;52.198;9.920;2023-10-08T13:14:46;3.53;;;1.57;;
13967;SDS011;39536;52.198;9.920;2023-10-08T13:17:12;2.63;;;1.40;;
13967;SDS011;39536;52.198;9.920;2023-10-08T13:19:40;3.23;;;1.90;;
13967;SDS011;39536;52.198;9.920;2023-10-08T13:22:07;2.77;;;1.60;;
13967;SDS011;39536;52.198;9.920;2023-10-08T13:24:34;3.60;;;1.50;;
13967;SDS011;39536;52.198;9.920;2023-10-08T13:27:01;5.63;;;1.90;;
13967;SDS011;39536;52.198;9.920;2023-10-08T13:29:31;3.33;;;1.70;;
13967;SDS011;39536;52.198;9.920;2023-10-08T13:31:58;3.97;;;1.97;;
13967;SDS011;39536;52.198;9.920;2023-10-08T13:34:25;2.47;;;1.47;;
13967;SDS011;39536;52.198;9.920;2023-10-08T13:36:53;4.47;;;1.70;;
13967;SDS011;39536;52.198;9.920;2023-10-08T13:39:21;3.67;;;1.80;;
13967;SDS011;39536;52.198;9.920;2023-10-08T13:41:47;3.70;;;1.60;;
13967;SDS011;39536;52.198;9.920;2023-10-08T13:44:14;3.97;;;2.33;;
13967;SDS011;39536;52.198;9.920;2023-10-08T13:46:43;4.50;;;1.70;;
13967;SDS011;39536;52.198;9.920;2023-10-08T13:49:13;2.13;;;1.43;;
13967;SDS011;39536;52.198;9.920;2023-10-08T13:51:41;6.73;;;2.00;;
13967;SDS011;39536;52.198;9.920;2023-10-08T13:54:10;1.43;;;1.33;;
13967;SDS011;39536;52.198;9.920;2023-10-08T13:56:37;6.30;;;1.60;;
13967;SDS011;39536;52.198;9.920;2023-10-08T13:59:07;4.33;;;1.47;;
13967;SDS011;39536;52.198;9.920;2023-10-08T14:01:38;6.07;;;1.80;;
13967;SDS011;39536;52.198;9.920;2023-10-08T14:04:08;1.87;;;1.30;;
13967;SDS011;39536;52.198;9.920;2023-10-08T14:06:35;5.87;;;1.70;;
13967;SDS011;39536;52.198;9.920;2023-10-08T14:09:06;4.97;;;1.50;;
13967;SDS011;39536;52.198;9.920;2023-10-08T14:11:38;4.63;;;1.60;;
13967;SDS011;39536;52.198;9.920;2023-10-08T14:14:05;5.33;;;1.70;;
13967;SDS011;39536;52.198;9.920;2023-10-08T14:16:36;2.80;;;1.60;;
13967;SDS011;39536;52.198;9.920;2023-10-08T14:19:07;5.77;;;1.80;;
13967;SDS011;39536;52.198;9.920;2023-10-08T14:21:34;2.97;;;1.53;;
13967;SDS011;39536;52.198;9.920;2023-10-08T14:24:13;2.77;;;1.13;;
13967;SDS011;39536;52.198;9.920;2023-10-08T14:26:41;9.60;;;2.63;;
13967;SDS011;39536;52.198;9.920;2023-10-08T14:29:08;2.97;;;1.70;;
13967;SDS011;39536;52.198;9.920;2023-10-08T14:31:39;3.90;;;1.67;;
13967;SDS011;39536;52.198;9.920;2023-10-08T14:34:09;4.60;;;1.30;;
13967;SDS011;39536;52.198;9.920;2023-10-08T14:36:54;2.43;;;1.30;;
13967;SDS011;39536;52.198;9.920;2023-10-08T14:39:38;3.53;;;1.43;;
13967;SDS011;39536;52.198;9.920;2023-10-08T14:42:24;3.70;;;1.47;;
13967;SDS011;39536;52.198;9.920;2023-10-08T14:45:08;2.83;;;1.53;;
13967;SDS011;39536;52.198;9.920;2023-10-08T14:47:38;2.27;;;1.27;;
13967;SDS011;39536;52.198;9.920;2023-10-08T14:50:06;3.17;;;1.90;;
13967;SDS011;39536;52.198;9.920;2023-10-08T14:52:41;2.20;;;1.20;;
13967;SDS011;39536;52.198;9.920;2023-10-08T14:55:08;2.80;;;1.60;;
13967;SDS011;39536;52.198;9.920;2023-10-08T14:57:36;4.33;;;1.30;;
13967;SDS011;39536;52.198;9.920;2023-10-08T15:00:04;4.03;;;1.57;;
13967;SDS011;39536;52.198;9.920;2023-10-08T15:02:31;2.67;;;1.20;;
13967;SDS011;39536;52.198;9.920;2023-10-08T15:04:58;2.53;;;1.73;;
13967;SDS011;39536;52.198;9.920;2023-10-08T15:07:26;3.27;;;1.40;;
13967;SDS011;39536;52.198;9.920;2023-10-08T15:09:53;3.87;;;1.50;;
13967;SDS011;39536;52.198;9.920;2023-10-08T15:12:22;3.53;;;1.40;;
13967;SDS011;39536;52.198;9.920;2023-10-08T15:14:51;2.00;;;1.47;;
13967;SDS011;39536;52.198;9.920;2023-10-08T15:17:18;4.97;;;1.70;;